createdAt,value
2019-01-26T00:02:09.585Z,85.62
2019-01-26T00:04:37.046Z,80.72
2019-01-26T00:07:04.105Z,93.72
2019-01-26T00:09:32.302Z,78.20
2019-01-26T00:12:00.363Z,90.87
2019-01-26T00:14:28.818Z,80.25
2019-01-26T00:16:56.181Z,94.22
2019-01-26T00:19:23.629Z,104.95
2019-01-26T00:21:51.290Z,85.07
2019-01-26T00:24:19.053Z,83.42
2019-01-26T00:26:46.411Z,89.75
2019-01-26T00:29:13.761Z,82.00
2019-01-26T00:31:42.670Z,91.37
2019-01-26T00:34:09.755Z,82.05
2019-01-26T00:36:37.931Z,90.35
2019-01-26T00:39:07.882Z,77.70
2019-01-26T00:41:35.416Z,78.72
2019-01-26T00:44:02.483Z,78.37
2019-01-26T00:46:29.594Z,74.12
2019-01-26T00:48:56.646Z,78.42
2019-01-26T00:51:24.047Z,80.72
2019-01-26T00:53:51.125Z,92.37
2019-01-26T00:56:18.183Z,79.58
2019-01-26T00:58:45.250Z,79.62
2019-01-26T01:01:12.851Z,81.25
2019-01-26T01:03:40.025Z,87.78
2019-01-26T01:06:07.175Z,82.40
2019-01-26T01:08:34.711Z,79.87
2019-01-26T01:11:02.064Z,78.87
2019-01-26T01:13:29.418Z,76.65
2019-01-26T01:15:56.788Z,88.55
2019-01-26T01:18:24.438Z,92.00
2019-01-26T01:20:52.101Z,92.12
2019-01-26T01:23:19.473Z,92.35
2019-01-26T01:25:46.806Z,91.02
2019-01-26T01:28:15.285Z,99.70
2019-01-26T01:30:42.637Z,94.30
2019-01-26T01:33:11.429Z,73.45
2019-01-26T01:35:38.501Z,78.15
2019-01-26T01:38:06.139Z,88.22
2019-01-26T01:40:33.485Z,94.58
2019-01-26T01:43:00.857Z,80.95
2019-01-26T01:45:28.310Z,104.45
2019-01-26T01:47:55.658Z,107.58
2019-01-26T01:50:23.014Z,91.57
2019-01-26T01:52:50.489Z,89.90
2019-01-26T01:55:19.670Z,94.10
2019-01-26T01:57:47.032Z,104.95
2019-01-26T02:00:19.755Z,102.97
2019-01-26T02:02:47.156Z,92.12
2019-01-26T02:05:14.594Z,94.50
2019-01-26T02:07:41.965Z,102.12
2019-01-26T02:10:11.048Z,109.60
2019-01-26T02:12:39.183Z,107.97
2019-01-26T02:15:07.403Z,104.27
2019-01-26T02:17:34.575Z,91.85
2019-01-26T02:20:03.768Z,126.82
2019-01-26T02:22:31.522Z,99.15
2019-01-26T02:24:59.082Z,108.05
2019-01-26T02:27:27.865Z,104.45
2019-01-26T02:29:55.971Z,114.25
2019-01-26T02:32:23.046Z,93.97
2019-01-26T02:34:50.750Z,156.07
2019-01-26T02:37:20.260Z,101.27
2019-01-26T02:39:47.925Z,114.97
2019-01-26T02:42:15.374Z,98.45
2019-01-26T02:44:42.725Z,108.27
2019-01-26T02:47:10.088Z,108.65
2019-01-26T02:49:39.585Z,108.90
2019-01-26T02:52:06.944Z,142.40
2019-01-26T02:54:36.144Z,128.25
2019-01-26T02:57:03.704Z,107.32
2019-01-26T02:59:31.893Z,164.72
2019-01-26T03:01:59.273Z,95.25
2019-01-26T03:04:26.687Z,92.22
2019-01-26T03:06:54.039Z,95.45
2019-01-26T03:09:21.498Z,90.87
2019-01-26T03:11:48.953Z,97.88
2019-01-26T03:14:16.306Z,95.55
2019-01-26T03:16:45.609Z,108.03
2019-01-26T03:19:12.687Z,109.03
2019-01-26T03:21:42.161Z,90.75
2019-01-26T03:24:12.484Z,86.17
2019-01-26T03:26:41.273Z,117.67
2019-01-26T03:29:10.155Z,111.52
2019-01-26T03:31:39.672Z,99.30
2019-01-26T03:34:07.031Z,95.53
2019-01-26T03:36:35.217Z,91.50
2019-01-26T03:39:02.325Z,82.05
2019-01-26T03:41:31.291Z,95.30
2019-01-26T03:43:59.000Z,87.85
2019-01-26T03:46:26.366Z,88.47
2019-01-26T03:48:53.830Z,123.62
2019-01-26T03:51:23.261Z,79.42
2019-01-26T03:53:50.348Z,77.20
2019-01-26T03:56:17.432Z,83.55
2019-01-26T03:58:45.595Z,81.57
2019-01-26T04:01:12.656Z,85.42
2019-01-26T04:03:39.737Z,80.32
2019-01-26T04:06:06.781Z,70.30
2019-01-26T04:08:34.352Z,77.53
2019-01-26T04:11:02.498Z,77.62
2019-01-26T04:13:30.227Z,74.85
2019-01-26T04:15:58.706Z,96.37
2019-01-26T04:18:26.022Z,89.00
2019-01-26T04:20:53.729Z,70.60
2019-01-26T04:23:21.162Z,81.50
2019-01-26T04:25:50.033Z,99.13
2019-01-26T04:28:17.526Z,71.85
2019-01-26T04:30:45.393Z,73.75
2019-01-26T04:33:13.053Z,97.47
2019-01-26T04:35:40.421Z,70.92
2019-01-26T04:38:07.965Z,77.55
2019-01-26T04:40:35.729Z,79.37
2019-01-26T04:43:03.192Z,81.12
2019-01-26T04:45:30.581Z,75.65
2019-01-26T04:47:57.897Z,77.65
2019-01-26T04:50:25.486Z,75.60
2019-01-26T04:52:53.230Z,72.75
2019-01-26T04:55:20.781Z,71.05
2019-01-26T04:57:48.134Z,68.52
2019-01-26T05:00:18.609Z,70.85
2019-01-26T05:02:46.029Z,59.53
2019-01-26T05:05:13.368Z,63.28
2019-01-26T05:07:42.255Z,72.25
2019-01-26T05:10:10.518Z,69.77
2019-01-26T05:12:37.892Z,61.33
2019-01-26T05:15:06.422Z,54.93
2019-01-26T05:17:39.190Z,71.62
2019-01-26T05:20:04.652Z,62.83
2019-01-26T05:22:31.746Z,64.05
2019-01-26T05:24:59.156Z,60.00
2019-01-26T05:27:26.229Z,55.98
2019-01-26T05:29:53.312Z,54.90
2019-01-26T05:32:20.378Z,43.83
2019-01-26T05:34:47.447Z,58.63
2019-01-26T05:37:15.329Z,50.65
2019-01-26T05:39:42.785Z,46.37
2019-01-26T05:42:10.547Z,40.38
2019-01-26T05:44:38.106Z,40.92
2019-01-26T05:47:05.769Z,53.02
2019-01-26T05:49:32.838Z,56.55
2019-01-26T05:52:00.084Z,54.70
2019-01-26T05:54:27.530Z,39.88
2019-01-26T05:56:55.711Z,47.48
2019-01-26T05:59:22.850Z,50.58
2019-01-26T06:01:50.252Z,43.08
2019-01-26T06:04:17.661Z,46.05
2019-01-26T06:06:45.440Z,38.23
2019-01-26T06:09:12.491Z,38.30
2019-01-26T06:11:40.254Z,48.45
2019-01-26T06:14:07.591Z,49.65
2019-01-26T06:16:34.787Z,45.05
2019-01-26T06:19:02.398Z,49.63
2019-01-26T06:21:30.267Z,54.25
2019-01-26T06:23:57.322Z,38.00
2019-01-26T06:26:24.669Z,40.70
2019-01-26T06:28:51.752Z,37.40
2019-01-26T06:31:18.821Z,41.80
2019-01-26T06:33:46.250Z,41.73
2019-01-26T06:36:14.850Z,42.53
2019-01-26T06:38:42.157Z,50.95
2019-01-26T06:41:10.025Z,42.90
2019-01-26T06:43:37.451Z,33.50
2019-01-26T06:46:04.833Z,27.58
2019-01-26T06:48:31.974Z,29.95
2019-01-26T06:50:59.339Z,29.02
2019-01-26T06:53:27.207Z,33.25
2019-01-26T06:55:54.268Z,22.80
2019-01-26T06:58:22.013Z,31.00
2019-01-26T07:00:49.370Z,30.65
2019-01-26T07:03:17.046Z,29.77
2019-01-26T07:05:55.655Z,23.07
2019-01-26T07:08:23.718Z,41.80
2019-01-26T07:10:51.075Z,35.73
2019-01-26T07:13:18.430Z,27.42
2019-01-26T07:15:45.630Z,35.65
2019-01-26T07:18:13.447Z,24.15
2019-01-26T07:20:40.803Z,22.05
2019-01-26T07:23:08.288Z,26.82
2019-01-26T07:25:35.877Z,24.40
2019-01-26T07:28:03.245Z,26.65
2019-01-26T07:30:30.541Z,22.70
2019-01-26T07:32:57.608Z,23.70
2019-01-26T07:35:24.929Z,18.42
2019-01-26T07:37:51.985Z,25.50
2019-01-26T07:40:19.402Z,35.03
2019-01-26T07:42:46.457Z,19.50
2019-01-26T07:45:13.745Z,32.90
2019-01-26T07:47:41.077Z,20.02
2019-01-26T07:50:10.816Z,23.33
2019-01-26T07:52:38.554Z,17.20
2019-01-26T07:55:06.889Z,20.77
2019-01-26T07:57:34.390Z,23.27
2019-01-26T08:00:01.851Z,22.20
2019-01-26T08:02:29.417Z,19.37
2019-01-26T08:04:57.374Z,35.03
2019-01-26T08:07:24.534Z,18.77
2019-01-26T08:09:51.614Z,21.23
2019-01-26T08:12:19.162Z,19.60
2019-01-26T08:14:47.530Z,17.60
2019-01-26T08:17:14.894Z,31.37
2019-01-26T08:19:42.730Z,16.73
2019-01-26T08:22:10.499Z,21.20
2019-01-26T08:24:38.258Z,18.93
2019-01-26T08:27:05.718Z,19.33
2019-01-26T08:29:33.583Z,21.50
2019-01-26T08:32:00.939Z,13.13
2019-01-26T08:34:29.319Z,23.13
2019-01-26T08:36:56.669Z,15.30
2019-01-26T08:39:24.026Z,22.93
2019-01-26T08:41:51.089Z,22.25
2019-01-26T08:44:19.070Z,19.15
2019-01-26T08:46:46.130Z,19.92
2019-01-26T08:49:13.582Z,16.13
2019-01-26T08:51:40.651Z,24.30
2019-01-26T08:54:07.733Z,25.62
2019-01-26T08:56:34.797Z,17.60
2019-01-26T08:59:01.878Z,22.67
2019-01-26T09:01:29.030Z,23.12
2019-01-26T09:04:04.085Z,24.02
2019-01-26T09:06:38.316Z,19.37
2019-01-26T09:09:10.761Z,25.37
2019-01-26T09:11:38.268Z,16.02
2019-01-26T09:14:05.555Z,16.73
2019-01-26T09:16:32.679Z,12.03
2019-01-26T09:19:00.106Z,21.30
2019-01-26T09:21:27.792Z,12.63
2019-01-26T09:23:55.863Z,14.83
2019-01-26T09:26:22.973Z,24.90
2019-01-26T09:28:50.673Z,22.27
2019-01-26T09:31:17.755Z,20.20
2019-01-26T09:33:45.279Z,21.07
2019-01-26T09:36:13.360Z,25.60
2019-01-26T09:38:41.010Z,22.30
2019-01-26T09:41:08.674Z,18.60
2019-01-26T09:43:35.756Z,20.43
2019-01-26T09:46:03.586Z,16.60
2019-01-26T09:48:30.710Z,17.30
2019-01-26T09:50:58.721Z,24.03
2019-01-26T09:53:26.058Z,24.07
2019-01-26T09:55:53.824Z,15.50
2019-01-26T09:58:21.192Z,18.73
2019-01-26T10:00:48.299Z,20.67
2019-01-26T10:03:15.382Z,23.93
2019-01-26T10:05:42.570Z,13.43
2019-01-26T10:08:10.294Z,19.07
2019-01-26T10:10:37.736Z,19.73
2019-01-26T10:13:04.920Z,12.13
2019-01-26T10:15:33.828Z,20.27
2019-01-26T10:18:01.347Z,15.63
2019-01-26T10:20:30.747Z,18.70
2019-01-26T10:22:58.202Z,23.70
2019-01-26T10:25:27.472Z,21.83
2019-01-26T10:27:55.266Z,13.67
2019-01-26T10:30:30.818Z,17.60
2019-01-26T10:32:57.878Z,13.90
2019-01-26T10:35:31.502Z,16.33
2019-01-26T10:37:59.944Z,18.23
2019-01-26T10:40:45.117Z,23.27
2019-01-26T10:43:14.415Z,17.92
2019-01-26T10:45:41.598Z,27.03
2019-01-26T10:48:09.327Z,20.60
2019-01-26T10:50:36.785Z,14.43
2019-01-26T10:53:04.239Z,24.27
2019-01-26T10:55:31.420Z,19.80
2019-01-26T10:57:58.846Z,15.80
2019-01-26T11:00:26.406Z,12.40
2019-01-26T11:02:53.470Z,16.57
2019-01-26T11:05:20.968Z,13.10
2019-01-26T11:07:48.369Z,15.57
2019-01-26T11:10:15.562Z,8.53
2019-01-26T11:12:42.766Z,13.97
2019-01-26T11:15:10.435Z,15.93
2019-01-26T11:17:37.628Z,14.83
2019-01-26T11:20:06.366Z,14.60
2019-01-26T11:22:33.722Z,19.37
2019-01-26T11:25:01.188Z,20.17
2019-01-26T11:27:28.258Z,14.58
2019-01-26T11:29:55.683Z,18.03
2019-01-26T11:32:23.546Z,12.87
2019-01-26T11:34:50.721Z,10.00
2019-01-26T11:37:18.167Z,13.07
2019-01-26T11:39:50.252Z,10.37
2019-01-26T11:42:17.346Z,16.50
2019-01-26T11:45:05.829Z,16.77
2019-01-26T11:47:33.010Z,11.50
2019-01-26T11:50:03.290Z,12.30
2019-01-26T11:52:31.060Z,9.90
2019-01-26T11:55:07.422Z,16.50
2019-01-26T11:57:37.314Z,7.35
2019-01-26T12:00:26.849Z,14.43
2019-01-26T12:03:00.477Z,18.10
2019-01-26T12:05:38.473Z,10.13
2019-01-26T12:08:06.622Z,12.30
2019-01-26T12:10:34.782Z,15.93
2019-01-26T12:13:01.877Z,12.13
2019-01-26T12:15:28.940Z,12.70
2019-01-26T12:17:56.373Z,15.40
2019-01-26T12:20:23.873Z,14.80
2019-01-26T12:22:52.281Z,13.23
2019-01-26T12:25:19.438Z,14.90
2019-01-26T12:27:46.525Z,24.80
2019-01-26T12:30:13.712Z,14.13
2019-01-26T12:32:40.781Z,12.27
2019-01-26T12:35:10.110Z,14.07
2019-01-26T12:37:37.662Z,13.23
2019-01-26T12:40:05.263Z,12.47
2019-01-26T12:42:32.479Z,9.50
2019-01-26T12:45:01.643Z,9.73
2019-01-26T12:47:29.118Z,14.33
2019-01-26T12:49:56.579Z,13.73
2019-01-26T12:52:24.707Z,11.53
2019-01-26T12:54:51.826Z,17.80
2019-01-26T12:57:19.257Z,11.63
2019-01-26T12:59:46.751Z,15.80
2019-01-26T13:02:13.837Z,16.27
2019-01-26T13:04:41.736Z,11.20
2019-01-26T13:07:08.832Z,10.20
2019-01-26T13:09:37.040Z,8.23
2019-01-26T13:12:04.234Z,10.83
2019-01-26T13:14:32.325Z,8.53
2019-01-26T13:16:59.678Z,9.53
2019-01-26T13:19:27.276Z,8.63
2019-01-26T13:21:55.617Z,12.27
2019-01-26T13:24:22.714Z,8.93
2019-01-26T13:26:50.887Z,9.80
2019-01-26T13:29:18.073Z,10.17
2019-01-26T13:31:46.600Z,8.30
2019-01-26T13:34:14.785Z,10.48
2019-01-26T13:36:42.198Z,8.73
2019-01-26T13:39:09.675Z,7.53
2019-01-26T13:41:37.371Z,18.97
2019-01-26T13:44:04.459Z,7.47
2019-01-26T13:46:32.336Z,7.73
2019-01-26T13:48:59.434Z,7.30
2019-01-26T13:51:26.540Z,7.60
2019-01-26T13:53:53.986Z,7.43
2019-01-26T13:56:21.546Z,5.93
2019-01-26T13:58:50.162Z,13.30
2019-01-26T14:01:17.483Z,10.77
2019-01-26T14:03:44.949Z,20.07
2019-01-26T14:06:12.806Z,13.27
2019-01-26T14:08:40.262Z,15.33
2019-01-26T14:11:07.341Z,10.00
2019-01-26T14:13:34.879Z,18.83
2019-01-26T14:16:02.286Z,9.20
2019-01-26T14:18:29.687Z,14.67
2019-01-26T14:20:56.886Z,8.90
2019-01-26T14:23:24.327Z,10.30
2019-01-26T14:25:51.422Z,10.37
2019-01-26T14:28:20.026Z,17.73
2019-01-26T14:30:55.401Z,14.13
2019-01-26T14:33:22.804Z,13.90
2019-01-26T14:35:50.312Z,15.23
2019-01-26T14:38:17.505Z,14.80
2019-01-26T14:40:45.297Z,22.63
2019-01-26T14:43:12.652Z,17.33
2019-01-26T14:45:40.722Z,16.63
2019-01-26T14:48:08.754Z,17.80
2019-01-26T14:50:39.321Z,20.27
2019-01-26T14:53:06.667Z,13.60
2019-01-26T14:55:35.573Z,15.40
2019-01-26T14:58:03.053Z,16.83
2019-01-26T15:00:31.629Z,16.90
2019-01-26T15:02:58.970Z,19.90
2019-01-26T15:05:26.949Z,15.90
2019-01-26T15:07:54.692Z,26.27
2019-01-26T15:10:22.149Z,18.40
2019-01-26T15:12:49.364Z,18.77
2019-01-26T15:15:17.564Z,19.70
2019-01-26T15:17:44.974Z,18.10
2019-01-26T15:20:17.811Z,20.80
2019-01-26T15:22:45.680Z,13.73
2019-01-26T15:25:13.545Z,13.13
2019-01-26T15:27:40.965Z,23.42
2019-01-26T15:30:15.058Z,21.07
2019-01-26T15:32:42.152Z,16.67
2019-01-26T15:35:09.663Z,20.50
2019-01-26T15:37:37.858Z,20.63
2019-01-26T15:40:05.686Z,17.93
2019-01-26T15:42:32.970Z,20.30
2019-01-26T15:45:00.311Z,16.87
2019-01-26T15:47:27.410Z,18.40
2019-01-26T15:49:54.498Z,20.20
2019-01-26T15:52:21.635Z,20.35
2019-01-26T15:54:49.873Z,19.60
2019-01-26T15:57:18.022Z,21.63
2019-01-26T15:59:45.137Z,22.43
2019-01-26T16:02:12.430Z,22.40
2019-01-26T16:04:39.544Z,40.77
2019-01-26T16:07:06.662Z,36.30
2019-01-26T16:09:33.847Z,33.67
2019-01-26T16:12:00.930Z,33.53
2019-01-26T16:14:28.162Z,36.00
2019-01-26T16:16:55.249Z,38.92
2019-01-26T16:19:23.317Z,35.10
2019-01-26T16:21:50.767Z,36.77
2019-01-26T16:24:17.823Z,36.73
2019-01-26T16:26:44.870Z,37.67
2019-01-26T16:29:12.068Z,33.30
2019-01-26T16:31:39.143Z,36.53
2019-01-26T16:34:06.224Z,39.88
2019-01-26T16:36:34.430Z,27.77
2019-01-26T16:39:01.956Z,30.40
2019-01-26T16:41:31.256Z,30.50
2019-01-26T16:43:59.019Z,20.90
2019-01-26T16:46:26.436Z,21.87
2019-01-26T16:48:53.831Z,20.60
2019-01-26T16:51:21.043Z,16.10
2019-01-26T16:53:48.439Z,17.40
2019-01-26T16:56:16.609Z,19.00
2019-01-26T16:58:45.512Z,19.15
2019-01-26T17:01:12.590Z,18.97
2019-01-26T17:03:39.663Z,18.83
2019-01-26T17:06:07.131Z,17.00
2019-01-26T17:08:34.243Z,17.53
2019-01-26T17:11:01.332Z,15.80
2019-01-26T17:13:28.442Z,17.43
2019-01-26T17:15:55.509Z,18.83
2019-01-26T17:18:24.599Z,16.33
2019-01-26T17:20:52.559Z,14.17
2019-01-26T17:23:20.379Z,15.53
2019-01-26T17:25:47.919Z,18.17
2019-01-26T17:28:15.237Z,15.30
2019-01-26T17:30:43.060Z,14.37
2019-01-26T17:33:10.515Z,15.07
2019-01-26T17:35:37.626Z,14.10
2019-01-26T17:38:05.122Z,13.77
2019-01-26T17:40:32.787Z,15.90
2019-01-26T17:42:59.905Z,15.53
2019-01-26T17:45:27.990Z,18.40
2019-01-26T17:47:55.463Z,16.20
2019-01-26T17:50:24.194Z,20.20
2019-01-26T17:52:51.310Z,17.90
2019-01-26T17:55:18.746Z,19.07
2019-01-26T17:57:46.202Z,16.83
2019-01-26T18:00:22.395Z,18.03
2019-01-26T18:02:52.308Z,21.67
2019-01-26T18:05:19.374Z,22.37
2019-01-26T18:07:49.430Z,21.37
2019-01-26T18:10:18.637Z,14.97
2019-01-26T18:12:45.998Z,18.10
2019-01-26T18:15:14.007Z,14.33
2019-01-26T18:17:41.794Z,18.60
2019-01-26T18:20:12.359Z,18.73
2019-01-26T18:22:40.531Z,15.83
2019-01-26T18:25:07.751Z,16.15
2019-01-26T18:27:34.834Z,14.73
2019-01-26T18:30:02.194Z,14.27
2019-01-26T18:32:29.841Z,18.73
2019-01-26T18:34:56.922Z,18.70
2019-01-26T18:37:25.158Z,15.43
2019-01-26T18:39:52.835Z,15.77
2019-01-26T18:42:20.909Z,15.87
2019-01-26T18:44:48.462Z,11.70
2019-01-26T18:47:16.435Z,13.70
2019-01-26T18:49:44.403Z,12.80
2019-01-26T18:52:11.858Z,15.73
2019-01-26T18:54:39.750Z,13.60
2019-01-26T18:57:07.203Z,14.53
2019-01-26T18:59:35.977Z,11.03
2019-01-26T19:02:03.181Z,12.70
2019-01-26T19:04:44.326Z,13.18
2019-01-26T19:07:11.939Z,11.43
2019-01-26T19:09:39.020Z,13.25
2019-01-26T19:12:06.362Z,11.55
2019-01-26T19:14:34.332Z,13.72
2019-01-26T19:17:01.439Z,12.85
2019-01-26T19:19:30.709Z,12.30
2019-01-26T19:21:57.815Z,12.73
2019-01-26T19:24:25.289Z,13.62
2019-01-26T19:26:52.351Z,12.37
2019-01-26T19:29:19.742Z,11.85
2019-01-26T19:31:47.154Z,10.78
2019-01-26T19:34:14.641Z,13.58
2019-01-26T19:36:42.185Z,10.90
2019-01-26T19:39:09.605Z,11.22
2019-01-26T19:41:38.303Z,11.85
2019-01-26T19:44:07.915Z,12.07
2019-01-26T19:46:36.110Z,14.83
2019-01-26T19:49:03.247Z,17.45
2019-01-26T19:51:30.459Z,15.80
2019-01-26T19:53:58.256Z,14.80
2019-01-26T19:56:25.643Z,16.70
2019-01-26T19:58:54.373Z,19.62
2019-01-26T20:01:21.479Z,18.48
2019-01-26T20:03:48.664Z,17.07
2019-01-26T20:06:15.823Z,16.55
2019-01-26T20:08:43.103Z,18.27
2019-01-26T20:11:10.181Z,16.40
2019-01-26T20:13:39.051Z,17.57
2019-01-26T20:16:06.482Z,19.10
2019-01-26T20:18:35.170Z,17.57
2019-01-26T20:21:02.650Z,16.80
2019-01-26T20:23:31.523Z,15.63
2019-01-26T20:26:00.105Z,16.07
2019-01-26T20:28:27.865Z,16.75
2019-01-26T20:30:54.929Z,18.25
2019-01-26T20:33:22.989Z,16.03
2019-01-26T20:35:50.561Z,17.07
2019-01-26T20:38:18.286Z,16.63
2019-01-26T20:40:45.366Z,18.67
2019-01-26T20:43:14.531Z,18.57
2019-01-26T20:45:41.876Z,19.70
2019-01-26T20:48:09.262Z,21.63
2019-01-26T20:50:36.569Z,16.57
2019-01-26T20:53:06.871Z,16.57
2019-01-26T20:55:35.980Z,16.77
2019-01-26T20:58:03.557Z,20.53
2019-01-26T21:00:31.569Z,32.07
2019-01-26T21:03:00.139Z,25.70
2019-01-26T21:05:27.260Z,22.83
2019-01-26T21:07:56.395Z,23.50
2019-01-26T21:10:26.240Z,25.07
2019-01-26T21:12:53.706Z,23.77
2019-01-26T21:15:20.893Z,27.00
2019-01-26T21:17:48.081Z,33.80
2019-01-26T21:20:16.946Z,27.80
2019-01-26T21:22:50.053Z,23.87
2019-01-26T21:25:17.827Z,19.83
2019-01-26T21:27:46.202Z,22.57
2019-01-26T21:30:17.159Z,23.33
2019-01-26T21:32:44.518Z,22.80
2019-01-26T21:35:11.603Z,20.03
2019-01-26T21:37:38.685Z,20.40
2019-01-26T21:40:11.714Z,22.63
2019-01-26T21:42:40.104Z,21.20
2019-01-26T21:45:09.435Z,23.70
2019-01-26T21:47:36.642Z,21.53
2019-01-26T21:50:06.290Z,20.50
2019-01-26T21:52:33.367Z,24.20
2019-01-26T21:55:00.903Z,23.00
2019-01-26T21:57:27.979Z,19.90
2019-01-26T21:59:55.167Z,21.33
2019-01-26T22:02:25.223Z,23.90
2019-01-26T22:04:52.603Z,21.70
2019-01-26T22:07:19.678Z,21.67
2019-01-26T22:09:47.284Z,24.80
2019-01-26T22:12:15.152Z,26.60
2019-01-26T22:14:42.750Z,23.23
2019-01-26T22:17:09.858Z,24.40
2019-01-26T22:19:37.040Z,26.53
2019-01-26T22:22:04.455Z,29.03
2019-01-26T22:24:32.238Z,29.53
2019-01-26T22:26:59.647Z,30.87
2019-01-26T22:29:31.241Z,31.83
2019-01-26T22:31:56.252Z,35.20
2019-01-26T22:34:24.402Z,33.70
2019-01-26T22:36:51.767Z,34.87
2019-01-26T22:39:18.887Z,31.80
2019-01-26T22:41:46.575Z,36.20
2019-01-26T22:44:13.703Z,32.30
2019-01-26T22:46:41.489Z,36.30
2019-01-26T22:49:08.951Z,36.07
2019-01-26T22:51:37.128Z,36.27
2019-01-26T22:54:04.874Z,35.23
2019-01-26T22:56:32.338Z,35.60
2019-01-26T22:58:59.427Z,42.87
2019-01-26T23:01:31.949Z,40.43
2019-01-26T23:04:36.965Z,40.00
2019-01-26T23:07:35.585Z,47.10
2019-01-26T23:10:48.970Z,44.73
2019-01-26T23:13:43.456Z,49.20
2019-01-26T23:16:51.814Z,52.73
2019-01-26T23:19:26.163Z,47.40
2019-01-26T23:22:27.763Z,59.87
2019-01-26T23:25:24.562Z,50.83
2019-01-26T23:28:12.468Z,54.07
2019-01-26T23:31:19.675Z,62.60
2019-01-26T23:33:51.003Z,54.43
2019-01-26T23:36:18.615Z,53.80
2019-01-26T23:38:46.699Z,53.17
2019-01-26T23:41:13.847Z,58.43
2019-01-26T23:43:41.563Z,52.73
2019-01-26T23:46:09.652Z,55.73
2019-01-26T23:48:41.024Z,57.97
2019-01-26T23:51:08.542Z,53.87
2019-01-26T23:53:36.200Z,51.93
2019-01-26T23:56:03.476Z,57.00
2019-01-26T23:58:31.114Z,53.80
